sensor_id;sensor_type;location;lat;lon;timestamp;pressure;altitude;pressure_sealevel;temperature;humidity
56721;BME280;53183;47.412;18.884;2023-02-02T00:02:18;99030.28;;;3.36;100.00
56721;BME280;53183;47.412;18.884;2023-02-02T00:04:46;99028.75;;;3.29;100.00
56721;BME280;53183;47.412;18.884;2023-02-02T00:07:13;99054.22;;;3.22;100.00
56721;BME280;53183;47.412;18.884;2023-02-02T00:09:41;99045.81;;;3.41;100.00
56721;BME280;53183;47.412;18.884;2023-02-02T00:12:08;99022.31;;;3.41;99.52
56721;BME280;53183;47.412;18.884;2023-02-02T00:14:36;99036.47;;;3.34;96.67
56721;BME280;53183;47.412;18.884;2023-02-02T00:17:03;99033.59;;;3.41;98.11
56721;BME280;53183;47.412;18.884;2023-02-02T00:19:31;99021.84;;;3.55;95.36
56721;BME280;53183;47.412;18.884;2023-02-02T00:21:59;99021.81;;;3.56;94.04
56721;BME280;53183;47.412;18.884;2023-02-02T00:24:26;99003.81;;;3.47;94.72
56721;BME280;53183;47.412;18.884;2023-02-02T00:26:55;99001.97;;;3.50;94.98
56721;BME280;53183;47.412;18.884;2023-02-02T00:29:26;99003.44;;;3.59;92.90
56721;BME280;53183;47.412;18.884;2023-02-02T00:31:53;98994.03;;;3.53;93.67
56721;BME280;53183;47.412;18.884;2023-02-02T00:34:21;99009.63;;;3.55;94.44
56721;BME280;53183;47.412;18.884;2023-02-02T00:36:49;99014.09;;;3.51;95.80
56721;BME280;53183;47.412;18.884;2023-02-02T00:39:19;99003.72;;;3.50;93.13
56721;BME280;53183;47.412;18.884;2023-02-02T00:41:46;98991.31;;;3.57;91.69
56721;BME280;53183;47.412;18.884;2023-02-02T00:44:14;99000.72;;;3.62;90.82
56721;BME280;53183;47.412;18.884;2023-02-02T00:47:00;99004.00;;;3.67;89.92
56721;BME280;53183;47.412;18.884;2023-02-02T00:49:27;99014.56;;;3.64;90.34
56721;BME280;53183;47.412;18.884;2023-02-02T00:51:54;99024.53;;;3.78;89.66
56721;BME280;53183;47.412;18.884;2023-02-02T00:54:22;99019.47;;;3.73;90.26
56721;BME280;53183;47.412;18.884;2023-02-02T00:56:49;99015.09;;;3.74;90.25
56721;BME280;53183;47.412;18.884;2023-02-02T00:59:16;99020.13;;;3.80;90.21
56721;BME280;53183;47.412;18.884;2023-02-02T01:01:44;99034.22;;;3.76;90.90
56721;BME280;53183;47.412;18.884;2023-02-02T01:04:12;99035.97;;;3.75;90.78
56721;BME280;53183;47.412;18.884;2023-02-02T01:06:39;99038.31;;;3.83;90.66
56721;BME280;53183;47.412;18.884;2023-02-02T01:09:07;99041.88;;;3.81;90.47
56721;BME280;53183;47.412;18.884;2023-02-02T01:11:35;99050.13;;;3.68;91.41
56721;BME280;53183;47.412;18.884;2023-02-02T01:14:02;99046.56;;;3.71;90.68
56721;BME280;53183;47.412;18.884;2023-02-02T01:16:30;99054.31;;;3.74;91.33
56721;BME280;53183;47.412;18.884;2023-02-02T01:18:57;99041.50;;;3.66;91.92
56721;BME280;53183;47.412;18.884;2023-02-02T01:21:24;99041.69;;;3.60;93.21
56721;BME280;53183;47.412;18.884;2023-02-02T01:23:52;99046.38;;;3.50;94.55
56721;BME280;53183;47.412;18.884;2023-02-02T01:26:19;99047.28;;;3.49;95.01
56721;BME280;53183;47.412;18.884;2023-02-02T01:28:46;99053.28;;;3.51;95.12
56721;BME280;53183;47.412;18.884;2023-02-02T01:31:15;99062.53;;;3.35;95.67
56721;BME280;53183;47.412;18.884;2023-02-02T01:33:43;99056.63;;;3.28;96.82
56721;BME280;53183;47.412;18.884;2023-02-02T01:36:12;99051.72;;;3.19;97.41
56721;BME280;53183;47.412;18.884;2023-02-02T01:38:40;99062.28;;;3.15;98.45
56721;BME280;53183;47.412;18.884;2023-02-02T01:41:11;99064.09;;;3.13;98.44
56721;BME280;53183;47.412;18.884;2023-02-02T01:46:16;99061.88;;;2.99;99.12
56721;BME280;53183;47.412;18.884;2023-02-02T01:48:45;99038.72;;;2.88;100.00
56721;BME280;53183;47.412;18.884;2023-02-02T01:51:15;99024.91;;;2.85;100.00
56721;BME280;53183;47.412;18.884;2023-02-02T01:53:44;99028.09;;;2.94;100.00
56721;BME280;53183;47.412;18.884;2023-02-02T01:56:13;99041.41;;;2.87;100.00
56721;BME280;53183;47.412;18.884;2023-02-02T01:58:43;99036.97;;;2.89;100.00
56721;BME280;53183;47.412;18.884;2023-02-02T02:01:11;99036.28;;;2.82;100.00
56721;BME280;53183;47.412;18.884;2023-02-02T02:03:40;99025.81;;;2.84;100.00
56721;BME280;53183;47.412;18.884;2023-02-02T02:06:08;99020.72;;;2.79;100.00
56721;BME280;53183;47.412;18.884;2023-02-02T02:08:46;99021.47;;;2.84;100.00
56721;BME280;53183;47.412;18.884;2023-02-02T02:11:17;99015.56;;;2.77;100.00
56721;BME280;53183;47.412;18.884;2023-02-02T02:13:44;99019.19;;;2.73;100.00
56721;BME280;53183;47.412;18.884;2023-02-02T02:22:20;98989.91;;;2.62;100.00
56721;BME280;53183;47.412;18.884;2023-02-02T02:33:23;99008.69;;;2.45;100.00
56721;BME280;53183;47.412;18.884;2023-02-02T02:36:02;99030.91;;;2.58;100.00
56721;BME280;53183;47.412;18.884;2023-02-02T02:41:26;99014.62;;;2.50;100.00
56721;BME280;53183;47.412;18.884;2023-02-02T02:43:58;99014.72;;;2.47;100.00
56721;BME280;53183;47.412;18.884;2023-02-02T02:46:27;99002.69;;;2.42;100.00
56721;BME280;53183;47.412;18.884;2023-02-02T02:48:56;98997.41;;;2.45;100.00
56721;BME280;53183;47.412;18.884;2023-02-02T02:51:44;99003.19;;;2.54;100.00
56721;BME280;53183;47.412;18.884;2023-02-02T02:54:14;99011.88;;;2.55;100.00
56721;BME280;53183;47.412;18.884;2023-02-02T02:56:49;99020.22;;;2.66;100.00
56721;BME280;53183;47.412;18.884;2023-02-02T03:01:54;99016.84;;;2.63;100.00
56721;BME280;53183;47.412;18.884;2023-02-02T03:04:32;99015.91;;;2.65;100.00
56721;BME280;53183;47.412;18.884;2023-02-02T03:07:04;99014.47;;;2.55;100.00
56721;BME280;53183;47.412;18.884;2023-02-02T03:09:35;99010.28;;;2.49;100.00
56721;BME280;53183;47.412;18.884;2023-02-02T03:12:04;99004.44;;;2.41;100.00
56721;BME280;53183;47.412;18.884;2023-02-02T03:14:35;98995.37;;;2.54;100.00
56721;BME280;53183;47.412;18.884;2023-02-02T03:17:02;98990.34;;;2.48;100.00
56721;BME280;53183;47.412;18.884;2023-02-02T03:19:30;98997.63;;;2.37;100.00
56721;BME280;53183;47.412;18.884;2023-02-02T03:21:57;99002.00;;;2.35;100.00
56721;BME280;53183;47.412;18.884;2023-02-02T03:24:24;99014.16;;;2.36;100.00
56721;BME280;53183;47.412;18.884;2023-02-02T03:26:52;99020.88;;;2.43;100.00
56721;BME280;53183;47.412;18.884;2023-02-02T03:29:19;99027.06;;;2.41;100.00
56721;BME280;53183;47.412;18.884;2023-02-02T03:31:47;99024.41;;;2.42;100.00
56721;BME280;53183;47.412;18.884;2023-02-02T03:34:14;99018.50;;;2.35;100.00
56721;BME280;53183;47.412;18.884;2023-02-02T03:36:42;99019.19;;;2.42;100.00
56721;BME280;53183;47.412;18.884;2023-02-02T03:39:09;99021.94;;;2.38;100.00
56721;BME280;53183;47.412;18.884;2023-02-02T03:41:36;99019.34;;;2.36;100.00
56721;BME280;53183;47.412;18.884;2023-02-02T03:44:04;99028.25;;;2.29;100.00
56721;BME280;53183;47.412;18.884;2023-02-02T03:46:31;99032.53;;;2.31;100.00
56721;BME280;53183;47.412;18.884;2023-02-02T03:48:59;99028.09;;;2.35;100.00
56721;BME280;53183;47.412;18.884;2023-02-02T03:51:26;99035.94;;;2.33;100.00
56721;BME280;53183;47.412;18.884;2023-02-02T03:53:53;99032.66;;;2.27;100.00
56721;BME280;53183;47.412;18.884;2023-02-02T03:56:21;99036.47;;;2.15;100.00
56721;BME280;53183;47.412;18.884;2023-02-02T03:58:48;99027.81;;;2.13;100.00
56721;BME280;53183;47.412;18.884;2023-02-02T04:01:16;99015.84;;;2.06;100.00
56721;BME280;53183;47.412;18.884;2023-02-02T04:03:43;99015.84;;;2.06;100.00
56721;BME280;53183;47.412;18.884;2023-02-02T04:06:12;99005.50;;;2.03;100.00
56721;BME280;53183;47.412;18.884;2023-02-02T04:08:39;99017.91;;;1.93;100.00
56721;BME280;53183;47.412;18.884;2023-02-02T04:11:10;99005.22;;;1.81;100.00
56721;BME280;53183;47.412;18.884;2023-02-02T04:13:37;99011.31;;;1.81;100.00
56721;BME280;53183;47.412;18.884;2023-02-02T04:16:06;99011.38;;;1.78;100.00
56721;BME280;53183;47.412;18.884;2023-02-02T04:18:33;99015.88;;;1.72;100.00
56721;BME280;53183;47.412;18.884;2023-02-02T04:21:00;99008.31;;;1.61;100.00
56721;BME280;53183;47.412;18.884;2023-02-02T04:23:29;99010.84;;;1.66;100.00
56721;BME280;53183;47.412;18.884;2023-02-02T04:25:56;99024.84;;;1.61;100.00
56721;BME280;53183;47.412;18.884;2023-02-02T04:28:24;99021.41;;;1.59;100.00
56721;BME280;53183;47.412;18.884;2023-02-02T04:30:53;99021.41;;;1.59;100.00
56721;BME280;53183;47.412;18.884;2023-02-02T04:33:21;99009.34;;;1.55;100.00
56721;BME280;53183;47.412;18.884;2023-02-02T04:35:49;99019.84;;;1.52;100.00
56721;BME280;53183;47.412;18.884;2023-02-02T04:38:17;99016.47;;;1.47;100.00
56721;BME280;53183;47.412;18.884;2023-02-02T04:40:44;99019.28;;;1.39;100.00
56721;BME280;53183;47.412;18.884;2023-02-02T04:43:12;99018.59;;;1.33;100.00
56721;BME280;53183;47.412;18.884;2023-02-02T04:45:40;99011.91;;;1.21;100.00
56721;BME280;53183;47.412;18.884;2023-02-02T04:48:08;99008.38;;;1.24;100.00
56721;BME280;53183;47.412;18.884;2023-02-02T04:50:36;98997.91;;;1.27;100.00
56721;BME280;53183;47.412;18.884;2023-02-02T04:53:03;98997.06;;;1.26;100.00
56721;BME280;53183;47.412;18.884;2023-02-02T04:55:34;98994.53;;;1.22;100.00
56721;BME280;53183;47.412;18.884;2023-02-02T04:58:02;99005.91;;;1.17;100.00
56721;BME280;53183;47.412;18.884;2023-02-02T05:00:29;98999.91;;;1.15;100.00
56721;BME280;53183;47.412;18.884;2023-02-02T05:02:57;99004.34;;;1.10;100.00
56721;BME280;53183;47.412;18.884;2023-02-02T05:05:24;98994.09;;;1.04;100.00
56721;BME280;53183;47.412;18.884;2023-02-02T05:07:52;98993.34;;;0.99;100.00
56721;BME280;53183;47.412;18.884;2023-02-02T05:10:19;98980.28;;;1.01;100.00
56721;BME280;53183;47.412;18.884;2023-02-02T05:12:46;98976.97;;;0.96;100.00
56721;BME280;53183;47.412;18.884;2023-02-02T05:15:14;98978.13;;;1.18;100.00
56721;BME280;53183;47.412;18.884;2023-02-02T05:17:41;98987.87;;;2.73;100.00
56721;BME280;53183;47.412;18.884;2023-02-02T05:20:09;98987.31;;;3.18;100.00
56721;BME280;53183;47.412;18.884;2023-02-02T05:22:37;98991.94;;;4.38;93.02
56721;BME280;53183;47.412;18.884;2023-02-02T05:25:05;98979.09;;;5.01;93.27
56721;BME280;53183;47.412;18.884;2023-02-02T05:27:33;98992.09;;;4.81;88.48
56721;BME280;53183;47.412;18.884;2023-02-02T05:30:00;98994.22;;;4.47;91.14
56721;BME280;53183;47.412;18.884;2023-02-02T05:32:28;98994.84;;;3.01;91.60
56721;BME280;53183;47.412;18.884;2023-02-02T05:34:55;98993.59;;;1.61;99.62
56721;BME280;53183;47.412;18.884;2023-02-02T05:37:23;98993.06;;;1.47;100.00
56721;BME280;53183;47.412;18.884;2023-02-02T05:39:50;98992.91;;;1.53;100.00
56721;BME280;53183;47.412;18.884;2023-02-02T05:42:19;99002.00;;;1.37;100.00
56721;BME280;53183;47.412;18.884;2023-02-02T05:44:47;98994.31;;;1.31;100.00
56721;BME280;53183;47.412;18.884;2023-02-02T05:47:14;98989.50;;;1.15;100.00
56721;BME280;53183;47.412;18.884;2023-02-02T05:49:41;98988.75;;;1.10;100.00
56721;BME280;53183;47.412;18.884;2023-02-02T05:52:10;98991.53;;;1.03;100.00
56721;BME280;53183;47.412;18.884;2023-02-02T05:54:41;98996.69;;;1.04;100.00
56721;BME280;53183;47.412;18.884;2023-02-02T05:57:08;98998.56;;;0.98;100.00
56721;BME280;53183;47.412;18.884;2023-02-02T05:59:36;99011.78;;;0.88;100.00
56721;BME280;53183;47.412;18.884;2023-02-02T06:02:03;99009.97;;;0.92;100.00
56721;BME280;53183;47.412;18.884;2023-02-02T06:04:31;99016.19;;;0.85;100.00
56721;BME280;53183;47.412;18.884;2023-02-02T06:06:58;99010.16;;;0.84;100.00
56721;BME280;53183;47.412;18.884;2023-02-02T06:09:25;99016.25;;;0.83;100.00
56721;BME280;53183;47.412;18.884;2023-02-02T06:11:53;99013.59;;;0.85;100.00
56721;BME280;53183;47.412;18.884;2023-02-02T06:14:20;99008.47;;;0.82;100.00
56721;BME280;53183;47.412;18.884;2023-02-02T06:16:48;99018.00;;;0.83;100.00
56721;BME280;53183;47.412;18.884;2023-02-02T06:19:15;99015.47;;;0.78;100.00
56721;BME280;53183;47.412;18.884;2023-02-02T06:21:42;99024.97;;;0.81;100.00
56721;BME280;53183;47.412;18.884;2023-02-02T06:24:10;99020.72;;;0.77;100.00
56721;BME280;53183;47.412;18.884;2023-02-02T06:26:37;99033.66;;;0.80;100.00
56721;BME280;53183;47.412;18.884;2023-02-02T06:29:05;99042.34;;;0.79;100.00
56721;BME280;53183;47.412;18.884;2023-02-02T06:31:32;99045.66;;;0.85;100.00
56721;BME280;53183;47.412;18.884;2023-02-02T06:34:00;99047.41;;;0.85;100.00
56721;BME280;53183;47.412;18.884;2023-02-02T06:36:28;99055.16;;;0.88;100.00
56721;BME280;53183;47.412;18.884;2023-02-02T06:38:55;99056.00;;;0.90;100.00
56721;BME280;53183;47.412;18.884;2023-02-02T06:41:23;99056.87;;;0.89;100.00
56721;BME280;53183;47.412;18.884;2023-02-02T06:43:50;99075.00;;;0.92;100.00
56721;BME280;53183;47.412;18.884;2023-02-02T06:46:18;99056.78;;;0.93;100.00
56721;BME280;53183;47.412;18.884;2023-02-02T06:48:45;99053.34;;;0.91;100.00
56721;BME280;53183;47.412;18.884;2023-02-02T06:51:13;99061.16;;;0.91;100.00
56721;BME280;53183;47.412;18.884;2023-02-02T06:53:40;99060.22;;;0.94;100.00
56721;BME280;53183;47.412;18.884;2023-02-02T06:56:10;99054.25;;;0.90;100.00
56721;BME280;53183;47.412;18.884;2023-02-02T06:58:38;99061.84;;;1.00;100.00
56721;BME280;53183;47.412;18.884;2023-02-02T07:01:09;99075.78;;;0.97;100.00
56721;BME280;53183;47.412;18.884;2023-02-02T07:03:37;99084.25;;;1.05;100.00
56721;BME280;53183;47.412;18.884;2023-02-02T07:06:14;99079.06;;;1.05;100.00
56721;BME280;53183;47.412;18.884;2023-02-02T07:08:42;99083.19;;;1.15;100.00
56721;BME280;53183;47.412;18.884;2023-02-02T07:11:10;99098.75;;;1.19;100.00
56721;BME280;53183;47.412;18.884;2023-02-02T07:13:43;99106.44;;;1.22;100.00
56721;BME280;53183;47.412;18.884;2023-02-02T07:16:10;99101.37;;;1.17;100.00
56721;BME280;53183;47.412;18.884;2023-02-02T07:18:41;99103.72;;;1.28;100.00
56721;BME280;53183;47.412;18.884;2023-02-02T07:21:15;99105.22;;;1.38;100.00
56721;BME280;53183;47.412;18.884;2023-02-02T07:23:43;99092.13;;;1.43;100.00
56721;BME280;53183;47.412;18.884;2023-02-02T07:26:10;99097.19;;;1.49;100.00
56721;BME280;53183;47.412;18.884;2023-02-02T07:28:38;99094.50;;;1.52;100.00
56721;BME280;53183;47.412;18.884;2023-02-02T07:31:16;99093.63;;;1.53;100.00
56721;BME280;53183;47.412;18.884;2023-02-02T07:33:44;99088.53;;;1.48;100.00
56721;BME280;53183;47.412;18.884;2023-02-02T07:36:12;99084.75;;;1.60;100.00
56721;BME280;53183;47.412;18.884;2023-02-02T07:38:42;99080.25;;;1.67;100.00
56721;BME280;53183;47.412;18.884;2023-02-02T07:41:10;99078.56;;;1.66;100.00
56721;BME280;53183;47.412;18.884;2023-02-02T07:43:37;99082.03;;;1.64;100.00
56721;BME280;53183;47.412;18.884;2023-02-02T07:46:06;99094.84;;;1.74;100.00
56721;BME280;53183;47.412;18.884;2023-02-02T07:48:36;99090.41;;;1.77;99.79
56721;BME280;53183;47.412;18.884;2023-02-02T07:51:04;99094.50;;;1.87;99.64
56721;BME280;53183;47.412;18.884;2023-02-02T07:53:32;99103.00;;;1.96;99.10
56721;BME280;53183;47.412;18.884;2023-02-02T07:56:07;99108.91;;;2.02;98.43
56721;BME280;53183;47.412;18.884;2023-02-02T07:58:35;99109.75;;;2.03;98.82
56721;BME280;53183;47.412;18.884;2023-02-02T08:01:04;99111.22;;;2.13;97.97
56721;BME280;53183;47.412;18.884;2023-02-02T08:03:32;99129.31;;;2.19;98.45
56721;BME280;53183;47.412;18.884;2023-02-02T08:06:00;99126.56;;;2.25;97.63
56721;BME280;53183;47.412;18.884;2023-02-02T08:08:27;99111.53;;;2.35;96.93
56721;BME280;53183;47.412;18.884;2023-02-02T08:10:55;99112.16;;;2.45;97.66
56721;BME280;53183;47.412;18.884;2023-02-02T08:13:22;99131.87;;;2.55;96.52
56721;BME280;53183;47.412;18.884;2023-02-02T08:15:49;99110.16;;;2.54;96.22
56721;BME280;53183;47.412;18.884;2023-02-02T08:18:17;99123.97;;;2.56;95.66
56721;BME280;53183;47.412;18.884;2023-02-02T08:20:44;99127.19;;;2.66;94.44
56721;BME280;53183;47.412;18.884;2023-02-02T08:23:12;99128.16;;;2.64;94.56
56721;BME280;53183;47.412;18.884;2023-02-02T08:25:42;99133.38;;;2.64;94.21
56721;BME280;53183;47.412;18.884;2023-02-02T08:28:09;99124.50;;;2.69;93.87
56721;BME280;53183;47.412;18.884;2023-02-02T08:30:36;99130.53;;;2.71;94.00
56721;BME280;53183;47.412;18.884;2023-02-02T08:33:04;99127.62;;;2.82;92.47
56721;BME280;53183;47.412;18.884;2023-02-02T08:35:31;99135.94;;;2.96;92.31
56721;BME280;53183;47.412;18.884;2023-02-02T08:37:58;99130.16;;;3.15;91.62
56721;BME280;53183;47.412;18.884;2023-02-02T08:40:29;99138.44;;;3.29;90.88
56721;BME280;53183;47.412;18.884;2023-02-02T08:42:56;99141.59;;;3.40;90.68
56721;BME280;53183;47.412;18.884;2023-02-02T08:45:23;99137.44;;;3.63;88.18
56721;BME280;53183;47.412;18.884;2023-02-02T08:48:11;99137.81;;;3.79;88.36
56721;BME280;53183;47.412;18.884;2023-02-02T08:50:40;99117.19;;;3.96;86.33
56721;BME280;53183;47.412;18.884;2023-02-02T08:53:07;99121.97;;;4.10;84.91
56721;BME280;53183;47.412;18.884;2023-02-02T08:55:35;99122.63;;;4.16;85.22
56721;BME280;53183;47.412;18.884;2023-02-02T08:58:02;99121.59;;;4.20;82.57
56721;BME280;53183;47.412;18.884;2023-02-02T09:00:29;99121.41;;;4.27;83.37
56721;BME280;53183;47.412;18.884;2023-02-02T09:02:57;99131.47;;;4.37;83.34
56721;BME280;53183;47.412;18.884;2023-02-02T09:05:24;99128.66;;;4.43;81.13
56721;BME280;53183;47.412;18.884;2023-02-02T09:07:52;99123.94;;;4.55;80.66
56721;BME280;53183;47.412;18.884;2023-02-02T09:10:20;99130.97;;;4.53;79.95
56721;BME280;53183;47.412;18.884;2023-02-02T09:12:47;99131.66;;;4.58;80.13
56721;BME280;53183;47.412;18.884;2023-02-02T09:15:14;99124.81;;;4.54;79.34
56721;BME280;53183;47.412;18.884;2023-02-02T09:17:42;99131.31;;;4.67;80.35
56721;BME280;53183;47.412;18.884;2023-02-02T09:20:09;99126.25;;;4.62;79.79
56721;BME280;53183;47.412;18.884;2023-02-02T09:22:37;99132.31;;;4.64;80.19
56721;BME280;53183;47.412;18.884;2023-02-02T09:25:05;99138.00;;;4.76;78.63
56721;BME280;53183;47.412;18.884;2023-02-02T09:27:35;99143.94;;;4.81;79.83
56721;BME280;53183;47.412;18.884;2023-02-02T09:30:03;99141.22;;;4.84;79.23
56721;BME280;53183;47.412;18.884;2023-02-02T09:32:30;99134.09;;;4.87;78.27
56721;BME280;53183;47.412;18.884;2023-02-02T09:34:58;99133.28;;;4.85;78.53
56721;BME280;53183;47.412;18.884;2023-02-02T09:37:26;99146.03;;;4.71;78.19
56721;BME280;53183;47.412;18.884;2023-02-02T09:39:54;99134.56;;;4.74;78.57
56721;BME280;53183;47.412;18.884;2023-02-02T09:47:51;99143.62;;;5.13;77.26
56721;BME280;53183;47.412;18.884;2023-02-02T09:50:21;99144.75;;;5.30;76.76
56721;BME280;53183;47.412;18.884;2023-02-02T09:55:43;99149.13;;;5.29;75.68
56721;BME280;53183;47.412;18.884;2023-02-02T09:58:17;99159.66;;;5.04;75.92
56721;BME280;53183;47.412;18.884;2023-02-02T10:00:47;99158.97;;;5.23;76.98
56721;BME280;53183;47.412;18.884;2023-02-02T10:03:22;99162.34;;;5.50;76.60
56721;BME280;53183;47.412;18.884;2023-02-02T10:05:52;99184.03;;;5.53;74.06
56721;BME280;53183;47.412;18.884;2023-02-02T10:13:52;99176.03;;;6.24;71.87
56721;BME280;53183;47.412;18.884;2023-02-02T10:16:22;99181.38;;;6.43;70.27
56721;BME280;53183;47.412;18.884;2023-02-02T10:18:58;99185.66;;;6.45;72.16
56721;BME280;53183;47.412;18.884;2023-02-02T10:22:01;99191.22;;;6.58;69.21
56721;BME280;53183;47.412;18.884;2023-02-02T10:24:21;99185.06;;;6.59;70.49
56721;BME280;53183;47.412;18.884;2023-02-02T10:26:54;99196.03;;;6.69;69.67
56721;BME280;53183;47.412;18.884;2023-02-02T10:45:16;99187.59;;;6.61;70.38
56721;BME280;53183;47.412;18.884;2023-02-02T10:47:44;99167.03;;;6.91;68.70
56721;BME280;53183;47.412;18.884;2023-02-02T10:52:40;99206.84;;;7.02;67.95
56721;BME280;53183;47.412;18.884;2023-02-02T10:57:57;99193.59;;;6.85;65.86
56721;BME280;53183;47.412;18.884;2023-02-02T11:03:14;99184.34;;;6.76;67.52
56721;BME280;53183;47.412;18.884;2023-02-02T11:05:42;99183.28;;;6.80;68.06
56721;BME280;53183;47.412;18.884;2023-02-02T11:08:39;99181.09;;;6.90;67.21
56721;BME280;53183;47.412;18.884;2023-02-02T11:13:42;99189.47;;;6.79;66.50
56721;BME280;53183;47.412;18.884;2023-02-02T11:18:42;99203.91;;;6.89;67.08
56721;BME280;53183;47.412;18.884;2023-02-02T11:23:53;99186.09;;;6.96;69.24
56721;BME280;53183;47.412;18.884;2023-02-02T11:26:22;99182.66;;;6.94;67.98
56721;BME280;53183;47.412;18.884;2023-02-02T11:28:51;99179.94;;;6.76;68.07
56721;BME280;53183;47.412;18.884;2023-02-02T11:31:35;99193.78;;;6.60;67.51
56721;BME280;53183;47.412;18.884;2023-02-02T11:34:23;99194.00;;;6.55;68.07
56721;BME280;53183;47.412;18.884;2023-02-02T11:39:28;99189.41;;;6.38;68.70
56721;BME280;53183;47.412;18.884;2023-02-02T11:42:14;99186.47;;;6.25;68.61
56721;BME280;53183;47.412;18.884;2023-02-02T11:44:46;99184.22;;;6.16;69.63
56721;BME280;53183;47.412;18.884;2023-02-02T11:47:19;99181.88;;;6.08;69.04
56721;BME280;53183;47.412;18.884;2023-02-02T11:49:49;99173.75;;;6.15;71.29
56721;BME280;53183;47.412;18.884;2023-02-02T11:52:22;99176.47;;;6.13;69.11
56721;BME280;53183;47.412;18.884;2023-02-02T11:54:52;99165.59;;;6.22;70.55
56721;BME280;53183;47.412;18.884;2023-02-02T11:57:21;99169.06;;;6.23;70.14
56721;BME280;53183;47.412;18.884;2023-02-02T11:59:50;99178.87;;;6.18;69.44
56721;BME280;53183;47.412;18.884;2023-02-02T12:04:46;99165.00;;;5.94;69.89
56721;BME280;53183;47.412;18.884;2023-02-02T12:10:01;99161.47;;;5.95;71.27
56721;BME280;53183;47.412;18.884;2023-02-02T12:15:41;99176.19;;;5.75;70.77
56721;BME280;53183;47.412;18.884;2023-02-02T12:52:05;99176.03;;;6.02;70.94
56721;BME280;53183;47.412;18.884;2023-02-02T13:00:06;99171.50;;;5.83;71.12
56721;BME280;53183;47.412;18.884;2023-02-02T13:05:35;99175.50;;;6.16;71.55
56721;BME280;53183;47.412;18.884;2023-02-02T13:08:18;99173.66;;;6.18;70.18
56721;BME280;53183;47.412;18.884;2023-02-02T13:10:51;99163.59;;;6.07;71.15
56721;BME280;53183;47.412;18.884;2023-02-02T13:13:24;99180.25;;;6.06;70.17
56721;BME280;53183;47.412;18.884;2023-02-02T13:15:57;99184.47;;;6.10;71.11
56721;BME280;53183;47.412;18.884;2023-02-02T13:18:27;99202.94;;;6.07;70.43
56721;BME280;53183;47.412;18.884;2023-02-02T13:23:30;99187.00;;;5.90;70.62
56721;BME280;53183;47.412;18.884;2023-02-02T13:30:59;99186.37;;;5.83;71.94
56721;BME280;53183;47.412;18.884;2023-02-02T13:33:32;99181.16;;;5.83;72.05
56721;BME280;53183;47.412;18.884;2023-02-02T13:36:07;99185.66;;;5.79;71.73
56721;BME280;53183;47.412;18.884;2023-02-02T13:38:36;99182.47;;;5.71;72.42
56721;BME280;53183;47.412;18.884;2023-02-02T13:41:09;99190.09;;;5.77;72.10
56721;BME280;53183;47.412;18.884;2023-02-02T13:51:26;99172.53;;;5.57;72.62
56721;BME280;53183;47.412;18.884;2023-02-02T13:54:07;99160.25;;;5.58;72.65
56721;BME280;53183;47.412;18.884;2023-02-02T14:01:57;99165.19;;;5.44;73.16
56721;BME280;53183;47.412;18.884;2023-02-02T14:04:29;99169.59;;;5.43;73.07
56721;BME280;53183;47.412;18.884;2023-02-02T14:07:01;99171.31;;;5.43;72.29
56721;BME280;53183;47.412;18.884;2023-02-02T14:09:34;99167.97;;;5.39;72.67
56721;BME280;53183;47.412;18.884;2023-02-02T14:12:04;99170.87;;;5.31;72.69
56721;BME280;53183;47.412;18.884;2023-02-02T14:14:35;99174.59;;;5.26;73.23
56721;BME280;53183;47.412;18.884;2023-02-02T14:17:51;99182.66;;;5.20;73.83
56721;BME280;53183;47.412;18.884;2023-02-02T14:20:37;99180.28;;;5.13;73.71
56721;BME280;53183;47.412;18.884;2023-02-02T14:28:00;99175.94;;;5.12;73.59
56721;BME280;53183;47.412;18.884;2023-02-02T14:30:29;99182.91;;;5.13;74.81
56721;BME280;53183;47.412;18.884;2023-02-02T14:38:24;99181.50;;;5.03;75.02
56721;BME280;53183;47.412;18.884;2023-02-02T14:44:03;99183.50;;;4.97;75.61
56721;BME280;53183;47.412;18.884;2023-02-02T14:46:32;99184.84;;;4.83;75.78
56721;BME280;53183;47.412;18.884;2023-02-02T14:51:28;99172.22;;;4.71;76.65
56721;BME280;53183;47.412;18.884;2023-02-02T14:54:01;99170.00;;;4.59;77.54
56721;BME280;53183;47.412;18.884;2023-02-02T14:59:05;99169.75;;;4.41;78.17
56721;BME280;53183;47.412;18.884;2023-02-02T15:01:41;99172.69;;;4.31;79.01
56721;BME280;53183;47.412;18.884;2023-02-02T15:06:47;99167.06;;;4.16;79.87
56721;BME280;53183;47.412;18.884;2023-02-02T15:17:00;99176.22;;;4.03;80.03
56721;BME280;53183;47.412;18.884;2023-02-02T15:19:31;99174.81;;;3.93;81.02
56721;BME280;53183;47.412;18.884;2023-02-02T15:22:02;99188.72;;;3.93;80.16
56721;BME280;53183;47.412;18.884;2023-02-02T15:24:33;99180.28;;;3.85;80.62
56721;BME280;53183;47.412;18.884;2023-02-02T15:27:02;99192.63;;;3.80;80.43
56721;BME280;53183;47.412;18.884;2023-02-02T15:31:58;99197.38;;;3.67;82.40
56721;BME280;53183;47.412;18.884;2023-02-02T15:34:34;99196.62;;;3.64;82.17
56721;BME280;53183;47.412;18.884;2023-02-02T15:37:06;99198.66;;;3.54;82.92
56721;BME280;53183;47.412;18.884;2023-02-02T15:39:38;99205.56;;;3.55;82.30
56721;BME280;53183;47.412;18.884;2023-02-02T15:42:12;99211.13;;;3.44;82.98
56721;BME280;53183;47.412;18.884;2023-02-02T15:44:59;99210.59;;;3.33;83.20
56721;BME280;53183;47.412;18.884;2023-02-02T15:47:31;99215.69;;;3.38;82.99
56721;BME280;53183;47.412;18.884;2023-02-02T15:50:00;99217.44;;;3.37;82.67
56721;BME280;53183;47.412;18.884;2023-02-02T15:52:29;99226.22;;;3.35;83.08
56721;BME280;53183;47.412;18.884;2023-02-02T15:54:59;99212.44;;;3.29;83.10
56721;BME280;53183;47.412;18.884;2023-02-02T15:57:33;99210.00;;;3.23;83.87
56721;BME280;53183;47.412;18.884;2023-02-02T16:00:25;99215.31;;;3.20;83.84
56721;BME280;53183;47.412;18.884;2023-02-02T16:02:50;99231.91;;;3.18;83.98